createdAt,value
2017-10-24T00:00:19.579Z,14.5
2017-10-24T00:01:20.982Z,14.5
2017-10-24T00:02:22.379Z,14.5
2017-10-24T00:03:23.777Z,14.5
2017-10-24T00:04:25.176Z,14.5
2017-10-24T00:05:26.575Z,14.5
2017-10-24T00:06:27.970Z,14.5
2017-10-24T00:07:29.371Z,14.5
2017-10-24T00:08:30.773Z,14.5
2017-10-24T00:09:32.172Z,14.5
2017-10-24T00:10:33.568Z,14.5
2017-10-24T00:11:34.990Z,14.5
2017-10-24T00:12:36.388Z,14.4
2017-10-24T00:13:37.784Z,14.4
2017-10-24T00:14:39.182Z,14.4
2017-10-24T00:15:40.583Z,14.5
2017-10-24T00:16:41.981Z,14.5
2017-10-24T00:17:43.380Z,14.4
2017-10-24T00:18:44.776Z,14.5
2017-10-24T00:19:46.174Z,14.4
2017-10-24T00:20:47.576Z,14.5
2017-10-24T00:21:48.974Z,14.5
2017-10-24T00:22:50.372Z,14.4
2017-10-24T00:23:51.775Z,14.4
2017-10-24T00:24:53.171Z,14.5
2017-10-24T00:25:54.572Z,14.4
2017-10-24T00:26:55.969Z,14.4
2017-10-24T00:27:57.367Z,14.4
2017-10-24T00:28:58.818Z,14.4
2017-10-24T00:30:00.216Z,14.4
2017-10-24T00:31:01.615Z,14.5
2017-10-24T00:32:03.014Z,14.4
2017-10-24T00:33:04.417Z,14.5
2017-10-24T00:34:05.811Z,14.5
2017-10-24T00:35:07.208Z,14.5
2017-10-24T00:36:08.608Z,14.4
2017-10-24T00:37:10.010Z,14.5
2017-10-24T00:38:11.409Z,14.4
2017-10-24T00:39:12.806Z,14.5
2017-10-24T00:40:14.206Z,14.5
2017-10-24T00:41:15.602Z,14.6
2017-10-24T00:42:16.999Z,14.6
2017-10-24T00:43:18.397Z,14.6
2017-10-24T00:44:19.800Z,14.5
2017-10-24T00:45:21.200Z,14.5
2017-10-24T00:46:22.595Z,14.6
2017-10-24T00:47:23.993Z,14.5
2017-10-24T00:48:25.392Z,14.5
2017-10-24T00:49:26.791Z,14.6
2017-10-24T00:50:28.189Z,14.5
2017-10-24T00:51:29.588Z,14.5
2017-10-24T00:52:30.984Z,14.5
2017-10-24T00:53:32.383Z,14.6
2017-10-24T00:54:33.782Z,14.6
2017-10-24T00:55:35.176Z,14.5
2017-10-24T00:56:36.577Z,14.5
2017-10-24T00:57:37.974Z,14.5
2017-10-24T00:58:39.389Z,14.7
2017-10-24T00:59:40.788Z,14.6
2017-10-24T01:00:42.188Z,14.6
2017-10-24T01:01:43.587Z,14.6
2017-10-24T01:02:44.986Z,14.5
2017-10-24T01:03:46.385Z,14.6
2017-10-24T01:04:47.790Z,14.5
2017-10-24T01:05:49.183Z,14.5
2017-10-24T01:06:50.588Z,14.6
2017-10-24T01:07:51.987Z,14.6
2017-10-24T01:08:53.387Z,14.6
2017-10-24T01:09:54.780Z,14.6
2017-10-24T01:10:56.182Z,14.6
2017-10-24T01:11:57.579Z,14.5
2017-10-24T01:12:58.981Z,14.6
2017-10-24T01:14:00.386Z,14.5
2017-10-24T01:15:01.780Z,14.5
2017-10-24T01:16:03.177Z,14.6
2017-10-24T01:17:04.573Z,14.6
2017-10-24T01:18:05.970Z,14.6
2017-10-24T01:19:07.371Z,14.6
2017-10-24T01:20:08.779Z,14.7
2017-10-24T01:21:10.171Z,14.5
2017-10-24T01:22:11.568Z,14.6
2017-10-24T01:23:12.964Z,14.6
2017-10-24T01:24:14.364Z,14.6
2017-10-24T01:25:15.759Z,14.6
2017-10-24T01:26:17.156Z,14.6
2017-10-24T01:27:18.559Z,14.6
2017-10-24T01:28:19.958Z,14.6
2017-10-24T01:29:21.356Z,14.6
2017-10-24T01:30:22.756Z,14.6
2017-10-24T01:31:24.153Z,14.6
2017-10-24T01:32:25.546Z,14.6
2017-10-24T01:33:26.944Z,14.6
2017-10-24T01:34:28.350Z,14.5
2017-10-24T01:35:29.749Z,14.7
2017-10-24T01:36:31.146Z,14.6
2017-10-24T01:37:32.539Z,14.6
2017-10-24T01:38:33.934Z,14.6
2017-10-24T01:39:35.355Z,14.6
2017-10-24T01:40:36.738Z,14.7
2017-10-24T01:41:38.145Z,14.6
2017-10-24T01:42:39.538Z,14.7
2017-10-24T01:43:40.933Z,14.7
2017-10-24T01:44:42.334Z,14.7
2017-10-24T01:45:43.734Z,14.7
2017-10-24T01:46:45.135Z,14.7
2017-10-24T01:47:46.536Z,14.7
2017-10-24T01:48:47.933Z,14.7
2017-10-24T01:49:49.331Z,14.7
2017-10-24T01:50:50.728Z,14.7
2017-10-24T01:51:52.126Z,14.7
2017-10-24T01:52:53.524Z,14.7
2017-10-24T01:53:54.923Z,14.7
2017-10-24T01:54:56.320Z,14.7
2017-10-24T01:55:57.722Z,14.7
2017-10-24T01:56:59.122Z,14.7
2017-10-24T01:58:00.523Z,14.7
2017-10-24T01:59:01.918Z,14.7
2017-10-24T02:00:03.313Z,14.7
2017-10-24T02:01:04.713Z,14.7
2017-10-24T02:02:06.115Z,14.7
2017-10-24T02:03:07.600Z,14.7
2017-10-24T02:04:09.024Z,14.7
2017-10-24T02:05:10.394Z,14.8
2017-10-24T02:06:11.791Z,14.8
2017-10-24T02:07:13.190Z,14.7
2017-10-24T02:08:14.590Z,14.8
2017-10-24T02:09:15.984Z,14.8
2017-10-24T02:10:17.387Z,14.8
2017-10-24T02:11:18.785Z,14.8
2017-10-24T02:12:20.183Z,14.8
2017-10-24T02:13:21.580Z,14.8
2017-10-24T02:14:22.982Z,14.8
2017-10-24T02:15:24.378Z,14.8
2017-10-24T02:16:25.780Z,14.7
2017-10-24T02:17:27.176Z,14.7
2017-10-24T02:18:28.575Z,14.8
2017-10-24T02:19:29.977Z,14.8
2017-10-24T02:20:31.375Z,14.8
2017-10-24T02:21:32.771Z,14.8
2017-10-24T02:22:34.167Z,14.8
2017-10-24T02:23:35.567Z,14.8
2017-10-24T02:24:36.966Z,14.7
2017-10-24T02:25:38.366Z,14.7
2017-10-24T02:26:39.764Z,14.7
2017-10-24T02:27:41.161Z,14.7
2017-10-24T02:28:42.558Z,14.7
2017-10-24T02:29:43.956Z,14.7
2017-10-24T02:30:45.353Z,14.7
2017-10-24T02:31:46.753Z,14.7
2017-10-24T02:32:48.152Z,14.7
2017-10-24T02:33:49.547Z,14.7
2017-10-24T02:34:50.944Z,14.7
2017-10-24T02:35:52.339Z,14.7
2017-10-24T02:36:53.737Z,14.7
2017-10-24T02:37:55.143Z,14.7
2017-10-24T02:38:56.544Z,14.7
2017-10-24T02:39:57.944Z,14.7
2017-10-24T02:40:59.339Z,14.6
2017-10-24T02:42:00.737Z,14.7
2017-10-24T02:43:02.133Z,14.7
2017-10-24T02:44:03.529Z,14.7
2017-10-24T02:45:04.930Z,14.6
2017-10-24T02:46:06.325Z,14.6
2017-10-24T02:47:07.726Z,14.6
2017-10-24T02:48:09.119Z,14.7
2017-10-24T02:49:10.518Z,14.7
2017-10-24T02:50:11.918Z,14.7
2017-10-24T02:51:13.381Z,14.6
2017-10-24T02:52:14.780Z,14.6
2017-10-24T02:53:16.183Z,14.7
2017-10-24T02:54:17.581Z,14.6
2017-10-24T02:55:18.980Z,14.6
2017-10-24T02:56:20.385Z,14.6
2017-10-24T02:57:21.777Z,14.6
2017-10-24T02:58:23.181Z,14.6
2017-10-24T02:59:24.574Z,14.7
2017-10-24T03:00:25.971Z,14.7
2017-10-24T03:01:27.378Z,14.6
2017-10-24T03:02:28.774Z,14.6
2017-10-24T03:03:30.175Z,14.6
2017-10-24T03:04:31.569Z,14.6
2017-10-24T03:05:32.966Z,14.6
2017-10-24T03:06:34.391Z,14.6
2017-10-24T03:07:35.784Z,14.7
2017-10-24T03:08:37.185Z,14.7
2017-10-24T03:09:38.584Z,14.7
2017-10-24T03:10:39.981Z,14.7
2017-10-24T03:11:41.377Z,14.6
2017-10-24T03:12:42.783Z,14.7
2017-10-24T03:13:44.177Z,14.6
2017-10-24T03:14:45.574Z,14.7
2017-10-24T03:15:46.973Z,14.7
2017-10-24T03:16:48.367Z,14.7
2017-10-24T03:17:49.768Z,14.7
2017-10-24T03:18:51.167Z,14.7
2017-10-24T03:19:52.566Z,14.7
2017-10-24T03:20:53.965Z,14.7
2017-10-24T03:21:55.366Z,14.7
2017-10-24T03:22:56.766Z,14.7
2017-10-24T03:23:58.161Z,14.7
2017-10-24T03:24:59.561Z,14.7
2017-10-24T03:26:00.958Z,14.7
2017-10-24T03:27:02.358Z,14.7
2017-10-24T03:28:03.759Z,14.7
2017-10-24T03:29:05.158Z,14.7
2017-10-24T03:30:06.559Z,14.7
2017-10-24T03:31:07.956Z,14.7
2017-10-24T03:32:09.350Z,14.7
2017-10-24T03:33:10.750Z,14.7
2017-10-24T03:34:12.146Z,14.7
2017-10-24T03:35:13.545Z,14.7
2017-10-24T03:36:14.946Z,14.7
2017-10-24T03:37:16.342Z,14.7
2017-10-24T03:38:17.740Z,14.7
2017-10-24T03:39:19.185Z,14.7
2017-10-24T03:40:20.580Z,14.7
2017-10-24T03:41:21.980Z,14.8
2017-10-24T03:42:23.378Z,14.8
2017-10-24T03:43:24.777Z,14.8
2017-10-24T03:44:26.180Z,14.8
2017-10-24T03:45:27.576Z,14.8
2017-10-24T03:46:28.975Z,14.8
2017-10-24T03:47:30.372Z,14.8
2017-10-24T03:48:31.769Z,14.8
2017-10-24T03:49:33.208Z,14.8
2017-10-24T03:50:34.607Z,14.8
2017-10-24T03:51:36.008Z,14.8
2017-10-24T03:52:37.404Z,14.9
2017-10-24T03:53:38.801Z,14.8
2017-10-24T03:54:40.201Z,14.8
2017-10-24T03:55:41.596Z,14.8
2017-10-24T03:56:42.997Z,14.8
2017-10-24T03:57:44.398Z,14.8
2017-10-24T03:58:45.800Z,14.7
2017-10-24T03:59:47.194Z,14.8
2017-10-24T04:00:48.591Z,14.8
2017-10-24T04:01:50.000Z,14.8
2017-10-24T04:02:51.390Z,14.8
2017-10-24T04:03:52.793Z,14.8
2017-10-24T04:04:54.189Z,14.8
2017-10-24T04:05:55.588Z,14.8
2017-10-24T04:06:56.988Z,14.8
2017-10-24T04:07:58.385Z,14.8
2017-10-24T04:08:59.789Z,14.8
2017-10-24T04:10:01.186Z,14.8
2017-10-24T04:11:02.586Z,14.9
2017-10-24T04:12:03.987Z,14.8
2017-10-24T04:13:05.389Z,14.8
2017-10-24T04:14:06.782Z,14.8
2017-10-24T04:15:08.177Z,14.8
2017-10-24T04:16:09.587Z,14.8
2017-10-24T04:17:10.975Z,14.9
2017-10-24T04:18:12.379Z,14.9
2017-10-24T04:19:13.782Z,14.9
2017-10-24T04:20:15.194Z,14.9
2017-10-24T04:21:16.582Z,14.9
2017-10-24T04:22:17.970Z,14.9
2017-10-24T04:23:19.369Z,14.9
2017-10-24T04:24:20.768Z,14.9
2017-10-24T04:25:22.166Z,14.9
2017-10-24T04:26:23.566Z,14.9
2017-10-24T04:27:25.039Z,14.9
2017-10-24T04:28:26.855Z,15.0
2017-10-24T04:29:28.263Z,14.9
2017-10-24T04:30:30.171Z,14.9
2017-10-24T04:31:31.567Z,15.0
2017-10-24T04:32:32.969Z,14.9
2017-10-24T04:33:34.371Z,14.9
2017-10-24T04:34:35.766Z,14.9
2017-10-24T04:35:37.162Z,14.9
2017-10-24T04:36:38.558Z,14.9
2017-10-24T04:37:39.960Z,14.9
2017-10-24T04:38:41.360Z,14.9
2017-10-24T04:39:42.756Z,14.9
2017-10-24T04:40:44.155Z,14.9
2017-10-24T04:41:45.554Z,14.9
2017-10-24T04:42:46.950Z,14.9
2017-10-24T04:43:48.351Z,14.9
2017-10-24T04:44:49.749Z,14.9
2017-10-24T04:45:51.150Z,14.9
2017-10-24T04:46:52.576Z,14.9
2017-10-24T04:47:53.963Z,14.9
2017-10-24T04:48:55.596Z,14.9
2017-10-24T04:49:57.583Z,14.9
2017-10-24T04:50:59.320Z,14.9
2017-10-24T04:52:00.718Z,14.9
2017-10-24T04:53:02.116Z,14.9
2017-10-24T04:54:03.513Z,15.0
2017-10-24T04:55:04.913Z,15.0
2017-10-24T04:56:06.314Z,14.9
2017-10-24T04:57:07.713Z,14.9
2017-10-24T04:58:09.113Z,15.0
2017-10-24T04:59:10.511Z,15.0
2017-10-24T05:00:11.910Z,15.0
2017-10-24T05:01:13.308Z,15.0
2017-10-24T05:02:14.711Z,15.0
2017-10-24T05:03:16.106Z,14.9
2017-10-24T05:04:17.503Z,15.0
2017-10-24T05:05:18.907Z,14.9
2017-10-24T05:06:20.298Z,14.9
2017-10-24T05:07:21.699Z,15.0
2017-10-24T05:08:23.095Z,15.0
2017-10-24T05:09:24.500Z,14.9
2017-10-24T05:10:25.903Z,15.0
2017-10-24T05:11:27.296Z,14.9
2017-10-24T05:12:28.696Z,14.9
2017-10-24T05:13:30.094Z,15.0
2017-10-24T05:14:31.493Z,15.0
2017-10-24T05:15:32.898Z,14.9
2017-10-24T05:16:34.310Z,15.0
2017-10-24T05:17:35.709Z,15.0
2017-10-24T05:18:37.109Z,15.0
2017-10-24T05:19:38.508Z,15.0
2017-10-24T05:20:39.903Z,15.0
2017-10-24T05:21:41.304Z,15.0
2017-10-24T05:22:42.705Z,14.9
2017-10-24T05:23:44.106Z,15.0
2017-10-24T05:24:45.511Z,15.0
2017-10-24T05:25:46.926Z,15.0
2017-10-24T05:26:48.324Z,15.0
2017-10-24T05:27:49.722Z,15.0
2017-10-24T05:28:51.123Z,15.0
2017-10-24T05:29:52.523Z,15.0
2017-10-24T05:30:53.959Z,14.9
2017-10-24T05:31:55.360Z,15.0
2017-10-24T05:32:56.757Z,14.9
2017-10-24T05:33:58.158Z,15.0
2017-10-24T05:34:59.557Z,14.9
2017-10-24T05:36:00.957Z,15.0
2017-10-24T05:37:02.355Z,15.0
2017-10-24T05:38:03.757Z,15.0
2017-10-24T05:39:05.159Z,14.9
2017-10-24T05:40:06.562Z,15.0
2017-10-24T05:41:07.954Z,15.0
2017-10-24T05:42:09.351Z,15.0
2017-10-24T05:43:10.754Z,14.9
2017-10-24T05:44:12.156Z,15.0
2017-10-24T05:45:13.556Z,15.0
2017-10-24T05:46:14.961Z,15.0
2017-10-24T05:47:16.357Z,15.0
2017-10-24T05:48:17.756Z,14.9
2017-10-24T05:49:19.152Z,14.9
2017-10-24T05:50:20.553Z,14.9
2017-10-24T05:51:21.955Z,15.0
2017-10-24T05:52:23.353Z,15.0
2017-10-24T05:53:24.750Z,15.0
2017-10-24T05:54:26.153Z,15.0
2017-10-24T05:55:27.545Z,15.0
2017-10-24T05:56:28.945Z,15.0
2017-10-24T05:57:30.347Z,15.0
2017-10-24T05:58:31.747Z,14.9
2017-10-24T05:59:33.149Z,14.9
2017-10-24T06:00:34.554Z,14.9
2017-10-24T06:01:35.952Z,14.9
2017-10-24T06:02:37.348Z,14.9
2017-10-24T06:03:38.753Z,14.9
2017-10-24T06:04:40.169Z,14.9
2017-10-24T06:05:41.574Z,14.9
2017-10-24T06:06:42.975Z,14.9
2017-10-24T06:07:44.378Z,15.0
2017-10-24T06:08:45.778Z,14.9
2017-10-24T06:09:47.177Z,15.0
2017-10-24T06:10:48.579Z,15.0
2017-10-24T06:11:49.982Z,14.9
2017-10-24T06:12:51.380Z,15.0
2017-10-24T06:13:52.783Z,15.0
2017-10-24T06:14:54.183Z,15.0
2017-10-24T06:15:55.581Z,15.0
2017-10-24T06:16:56.979Z,14.9
2017-10-24T06:17:58.379Z,15.0
2017-10-24T06:18:59.778Z,15.0
2017-10-24T06:20:01.176Z,15.0
2017-10-24T06:21:02.584Z,15.0
2017-10-24T06:22:03.981Z,15.0
2017-10-24T06:23:05.376Z,15.0
2017-10-24T06:24:06.777Z,15.0
2017-10-24T06:25:08.176Z,15.0
2017-10-24T06:26:09.577Z,15.0
2017-10-24T06:27:10.975Z,15.0
2017-10-24T06:28:12.379Z,15.0
2017-10-24T06:29:13.780Z,15.0
2017-10-24T06:30:15.180Z,15.1
2017-10-24T06:31:16.580Z,15.1
2017-10-24T06:32:17.980Z,15.0
2017-10-24T06:33:19.379Z,15.0
2017-10-24T06:34:20.776Z,15.0
2017-10-24T06:35:22.182Z,15.1
2017-10-24T06:36:23.579Z,15.0
2017-10-24T06:37:24.977Z,15.0
2017-10-24T06:38:26.377Z,15.1
2017-10-24T06:39:27.777Z,15.0
2017-10-24T06:40:29.178Z,15.0
2017-10-24T06:41:30.583Z,15.0
2017-10-24T06:42:31.987Z,15.0
2017-10-24T06:43:33.390Z,15.0
2017-10-24T06:44:34.789Z,15.0
2017-10-24T06:45:36.190Z,15.1
2017-10-24T06:46:37.594Z,15.0
2017-10-24T06:47:38.990Z,15.1
2017-10-24T06:48:40.397Z,15.1
2017-10-24T06:49:41.794Z,15.1
2017-10-24T06:50:43.198Z,15.1
2017-10-24T06:51:44.604Z,15.1
2017-10-24T06:52:46.006Z,15.1
2017-10-24T06:53:47.409Z,15.1
2017-10-24T06:54:48.815Z,15.1
2017-10-24T06:55:50.216Z,15.1
2017-10-24T06:56:51.628Z,15.1
2017-10-24T06:57:53.022Z,15.1
2017-10-24T06:58:54.423Z,15.1
2017-10-24T06:59:55.825Z,15.1
2017-10-24T07:00:57.228Z,15.1
2017-10-24T07:01:58.631Z,15.1
2017-10-24T07:03:00.037Z,15.2
2017-10-24T07:04:01.443Z,15.2
2017-10-24T07:05:02.857Z,15.2
2017-10-24T07:06:04.257Z,15.2
2017-10-24T07:07:05.664Z,15.2
2017-10-24T07:08:07.063Z,15.2
2017-10-24T07:09:08.464Z,15.2
2017-10-24T07:10:09.866Z,15.3
2017-10-24T07:11:11.268Z,15.3
2017-10-24T07:12:12.670Z,15.3
2017-10-24T07:13:14.068Z,15.4
2017-10-24T07:14:15.470Z,15.3
2017-10-24T07:15:16.869Z,15.4
2017-10-24T07:16:18.272Z,15.4
2017-10-24T07:17:19.676Z,15.3
2017-10-24T07:18:21.079Z,15.4
2017-10-24T07:19:22.484Z,15.4
2017-10-24T07:20:23.884Z,15.4
2017-10-24T07:21:25.283Z,15.4
2017-10-24T07:22:26.685Z,15.4
2017-10-24T07:23:28.088Z,15.4
2017-10-24T07:24:29.492Z,15.4
2017-10-24T07:25:30.900Z,15.4
2017-10-24T07:26:32.302Z,15.5
2017-10-24T07:27:33.701Z,15.4
2017-10-24T07:28:35.107Z,15.5
2017-10-24T07:29:36.508Z,15.5
2017-10-24T07:30:37.912Z,15.5
2017-10-24T07:31:39.315Z,15.4
2017-10-24T07:32:40.720Z,15.5
2017-10-24T07:33:42.120Z,15.6
2017-10-24T07:34:43.521Z,15.5
2017-10-24T07:35:44.925Z,15.5
2017-10-24T07:36:46.329Z,15.6
2017-10-24T07:37:47.732Z,15.6
2017-10-24T07:38:49.138Z,15.6
2017-10-24T07:39:50.543Z,15.7
2017-10-24T07:40:51.947Z,15.6
2017-10-24T07:41:53.349Z,15.7
2017-10-24T07:42:54.754Z,15.7
2017-10-24T07:43:56.157Z,15.7
2017-10-24T07:44:57.558Z,15.7
2017-10-24T07:45:58.960Z,15.7
2017-10-24T07:47:00.365Z,15.9
2017-10-24T07:48:01.770Z,15.8
2017-10-24T07:49:03.178Z,15.9
2017-10-24T07:50:04.574Z,15.8
2017-10-24T07:51:05.985Z,16.0
2017-10-24T07:52:07.388Z,16.1
2017-10-24T07:53:08.792Z,16.1
2017-10-24T07:54:10.198Z,16.0
2017-10-24T07:55:11.605Z,16.1
2017-10-24T07:56:13.009Z,16.1
2017-10-24T07:57:14.416Z,16.2
2017-10-24T07:58:15.825Z,16.2
2017-10-24T07:59:17.232Z,16.3
2017-10-24T08:00:18.642Z,16.3
2017-10-24T08:01:20.046Z,16.3
2017-10-24T08:02:21.454Z,16.3
2017-10-24T08:03:22.859Z,16.3
2017-10-24T08:04:24.262Z,16.3
2017-10-24T08:05:25.668Z,16.4
2017-10-24T08:06:27.075Z,16.4
2017-10-24T08:07:28.480Z,16.3
2017-10-24T08:08:29.885Z,16.4
2017-10-24T08:09:31.286Z,16.4
2017-10-24T08:10:32.688Z,16.2
2017-10-24T08:11:34.092Z,16.4
2017-10-24T08:12:35.495Z,16.5
2017-10-24T08:13:36.896Z,16.4
2017-10-24T08:14:38.299Z,16.4
2017-10-24T08:15:39.706Z,16.5
2017-10-24T08:16:41.111Z,16.5
2017-10-24T08:17:42.519Z,16.6
2017-10-24T08:18:43.919Z,16.6
2017-10-24T08:19:45.324Z,16.6
2017-10-24T08:20:46.727Z,16.7
2017-10-24T08:21:48.135Z,16.7
2017-10-24T08:22:49.540Z,16.8
2017-10-24T08:23:50.946Z,17.0
2017-10-24T08:24:52.350Z,17.0
2017-10-24T08:25:53.752Z,17.0
2017-10-24T08:26:55.173Z,17.0
2017-10-24T08:27:56.560Z,17.1
2017-10-24T08:28:57.968Z,17.1
2017-10-24T08:29:59.374Z,17.1
2017-10-24T08:31:00.778Z,17.2
2017-10-24T08:32:02.181Z,17.1
2017-10-24T08:33:03.589Z,17.0
2017-10-24T08:34:04.991Z,17.0
2017-10-24T08:35:06.395Z,17.0
2017-10-24T08:36:07.803Z,17.0
2017-10-24T08:37:09.207Z,17.1
2017-10-24T08:38:10.616Z,17.1
2017-10-24T08:39:12.020Z,17.1
2017-10-24T08:40:13.422Z,17.0
2017-10-24T08:41:14.826Z,17.0
2017-10-24T08:42:16.229Z,16.9
2017-10-24T08:43:17.636Z,17.1
2017-10-24T08:44:19.043Z,17.0
2017-10-24T08:45:20.449Z,17.1
2017-10-24T08:46:21.855Z,17.1
2017-10-24T08:47:23.259Z,17.1
2017-10-24T08:48:24.663Z,17.0
2017-10-24T08:49:26.069Z,17.1
2017-10-24T08:50:27.474Z,16.9
2017-10-24T08:51:28.880Z,16.9
2017-10-24T08:52:30.285Z,16.9
2017-10-24T08:53:31.691Z,17.0
2017-10-24T08:54:33.115Z,17.0
2017-10-24T08:55:34.520Z,16.9
2017-10-24T08:56:35.922Z,17.0
2017-10-24T08:57:37.346Z,17.0
2017-10-24T08:58:38.745Z,17.1
2017-10-24T08:59:40.152Z,17.1
2017-10-24T09:00:41.553Z,17.0
2017-10-24T09:01:42.958Z,17.1
2017-10-24T09:02:44.365Z,17.1
2017-10-24T09:03:45.771Z,17.1
2017-10-24T09:04:47.178Z,17.2
2017-10-24T09:05:48.586Z,17.2
2017-10-24T09:06:49.993Z,17.2
2017-10-24T09:07:51.401Z,17.3
2017-10-24T09:08:52.802Z,17.4
2017-10-24T09:09:54.208Z,17.4
2017-10-24T09:10:55.613Z,17.4
2017-10-24T09:11:57.018Z,17.4
2017-10-24T09:12:58.422Z,17.4
2017-10-24T09:13:59.827Z,17.4
2017-10-24T09:15:01.230Z,17.5
2017-10-24T09:16:02.634Z,17.4
2017-10-24T09:17:04.039Z,17.5
2017-10-24T09:18:05.440Z,17.7
2017-10-24T09:19:06.847Z,17.7
2017-10-24T09:20:08.254Z,17.8
2017-10-24T09:21:09.659Z,17.7
2017-10-24T09:22:11.065Z,17.8
2017-10-24T09:23:12.471Z,17.9
2017-10-24T09:24:13.878Z,17.9
2017-10-24T09:25:15.283Z,17.9
2017-10-24T09:26:16.690Z,17.9
2017-10-24T09:27:18.098Z,17.9
2017-10-24T09:28:19.505Z,18.0
2017-10-24T09:29:20.905Z,17.9
2017-10-24T09:30:22.310Z,17.9
2017-10-24T09:31:23.716Z,17.9
2017-10-24T09:32:25.117Z,18.1
2017-10-24T09:33:26.521Z,18.3
2017-10-24T09:34:27.928Z,18.2
2017-10-24T09:35:29.333Z,18.3
2017-10-24T09:36:30.738Z,18.3
2017-10-24T09:37:32.146Z,18.3
2017-10-24T09:38:33.550Z,18.2
2017-10-24T09:39:34.959Z,18.2
2017-10-24T09:40:36.385Z,18.4
2017-10-24T09:41:37.775Z,18.4
2017-10-24T09:42:39.186Z,18.2
2017-10-24T09:43:40.603Z,18.3
2017-10-24T09:44:42.008Z,18.2
2017-10-24T09:45:43.413Z,18.2
2017-10-24T09:46:44.819Z,18.2
2017-10-24T09:47:46.226Z,18.2
2017-10-24T09:48:47.632Z,18.2
2017-10-24T09:49:49.043Z,18.2
2017-10-24T09:50:50.451Z,18.3
2017-10-24T09:51:51.851Z,18.2
2017-10-24T09:52:53.260Z,18.3
2017-10-24T09:53:54.666Z,18.4
2017-10-24T09:54:56.071Z,18.4
2017-10-24T09:55:57.478Z,18.3
2017-10-24T09:56:58.887Z,18.4
2017-10-24T09:58:00.288Z,18.4
2017-10-24T09:59:01.691Z,18.4
2017-10-24T10:00:03.095Z,18.3
2017-10-24T10:01:04.502Z,18.5
2017-10-24T10:02:05.911Z,18.5
2017-10-24T10:03:07.317Z,18.5
2017-10-24T10:04:08.725Z,18.5
2017-10-24T10:05:10.131Z,18.6
2017-10-24T10:06:11.534Z,18.5
2017-10-24T10:07:12.940Z,18.7
2017-10-24T10:08:14.348Z,18.7
2017-10-24T10:09:15.757Z,18.8
2017-10-24T10:10:17.167Z,18.9
2017-10-24T10:11:18.575Z,18.9
2017-10-24T10:12:19.983Z,19.1
2017-10-24T10:13:21.387Z,19.1
2017-10-24T10:14:22.793Z,19.0
2017-10-24T10:15:24.197Z,19.0
2017-10-24T10:16:25.602Z,19.0
2017-10-24T10:17:27.007Z,18.9
2017-10-24T10:18:28.414Z,18.9
2017-10-24T10:19:29.823Z,18.9
2017-10-24T10:20:31.221Z,18.6
2017-10-24T10:21:32.625Z,18.6
2017-10-24T10:22:34.033Z,18.6
2017-10-24T10:23:35.438Z,18.6
2017-10-24T10:24:36.849Z,18.5
2017-10-24T10:25:38.253Z,18.6
2017-10-24T10:26:39.657Z,18.5
2017-10-24T10:27:41.062Z,18.5
2017-10-24T10:28:42.469Z,18.4
2017-10-24T10:29:43.870Z,18.5
2017-10-24T10:30:45.274Z,18.4
2017-10-24T10:31:46.680Z,18.4
2017-10-24T10:32:48.130Z,18.3
2017-10-24T10:33:49.539Z,18.4
2017-10-24T10:34:50.941Z,18.3
2017-10-24T10:35:52.349Z,18.4
2017-10-24T10:36:53.756Z,18.5
2017-10-24T10:37:55.159Z,18.5
2017-10-24T10:38:56.565Z,18.5
2017-10-24T10:39:57.972Z,18.5
2017-10-24T10:40:59.380Z,18.5
2017-10-24T10:42:00.784Z,18.6
2017-10-24T10:43:02.200Z,18.6
2017-10-24T10:44:03.603Z,18.7
2017-10-24T10:45:05.005Z,18.7
2017-10-24T10:46:06.414Z,18.7
2017-10-24T10:47:07.822Z,18.6
2017-10-24T10:48:09.224Z,18.6
2017-10-24T10:49:10.628Z,18.7
2017-10-24T10:50:12.029Z,18.7
2017-10-24T10:51:13.435Z,18.7
2017-10-24T10:52:14.840Z,18.7
2017-10-24T10:53:16.243Z,18.6
2017-10-24T10:54:17.651Z,18.6
2017-10-24T10:55:19.052Z,18.6
2017-10-24T10:56:20.458Z,18.6
2017-10-24T10:57:21.866Z,18.7
2017-10-24T10:58:23.272Z,18.7
2017-10-24T10:59:24.680Z,18.6
2017-10-24T11:00:26.088Z,18.5
2017-10-24T11:01:27.498Z,18.5
2017-10-24T11:02:28.903Z,18.6
2017-10-24T11:03:30.308Z,18.6
2017-10-24T11:04:31.712Z,18.5
2017-10-24T11:05:33.115Z,18.6
2017-10-24T11:06:34.524Z,18.6
2017-10-24T11:07:35.930Z,18.5
2017-10-24T11:08:37.338Z,18.5
2017-10-24T11:09:38.743Z,18.5
2017-10-24T11:10:40.144Z,18.5
2017-10-24T11:11:41.547Z,18.5
2017-10-24T11:12:42.951Z,18.4
2017-10-24T11:13:44.358Z,18.4
2017-10-24T11:14:45.765Z,18.5
2017-10-24T11:15:47.169Z,18.4
2017-10-24T11:16:48.572Z,18.3
2017-10-24T11:17:49.973Z,18.4
2017-10-24T11:18:51.378Z,18.4
2017-10-24T11:19:52.785Z,18.4
2017-10-24T11:20:54.193Z,18.4
2017-10-24T11:21:55.592Z,18.4
2017-10-24T11:22:57.003Z,18.4
2017-10-24T11:23:58.407Z,18.3
2017-10-24T11:24:59.810Z,18.4
2017-10-24T11:26:01.215Z,18.4
2017-10-24T11:27:02.621Z,18.4
2017-10-24T11:28:04.028Z,18.5
2017-10-24T11:29:05.435Z,18.4
2017-10-24T11:30:06.842Z,18.4
2017-10-24T11:31:08.242Z,18.3
2017-10-24T11:32:09.647Z,18.3
2017-10-24T11:33:11.050Z,18.3
2017-10-24T11:34:12.457Z,18.3
2017-10-24T11:35:13.858Z,18.2
2017-10-24T11:36:15.263Z,18.3
2017-10-24T11:37:16.670Z,18.4
2017-10-24T11:38:18.073Z,18.3
2017-10-24T11:39:19.475Z,18.4
2017-10-24T11:40:20.881Z,18.4
2017-10-24T11:41:22.287Z,18.4
2017-10-24T11:42:23.688Z,18.4
2017-10-24T11:43:25.094Z,18.5
2017-10-24T11:44:26.499Z,18.5
2017-10-24T11:45:27.902Z,18.6
2017-10-24T11:46:29.306Z,18.6
2017-10-24T11:47:30.710Z,18.7
2017-10-24T11:48:32.116Z,18.7
2017-10-24T11:49:33.521Z,18.7
2017-10-24T11:50:34.933Z,18.7
2017-10-24T11:51:36.346Z,18.7
2017-10-24T11:52:37.739Z,18.7
2017-10-24T11:53:39.144Z,18.7
2017-10-24T11:54:40.548Z,18.7
2017-10-24T11:55:41.953Z,18.7
2017-10-24T11:56:43.357Z,18.7
2017-10-24T11:57:44.762Z,18.7
2017-10-24T11:58:46.168Z,18.7
2017-10-24T11:59:47.572Z,18.7
2017-10-24T12:00:48.977Z,18.6
2017-10-24T12:01:50.384Z,18.6
2017-10-24T12:02:51.786Z,18.6
2017-10-24T12:03:53.203Z,18.5
2017-10-24T12:04:54.598Z,18.5
2017-10-24T12:05:56.005Z,18.5
2017-10-24T12:06:57.412Z,18.6
2017-10-24T12:07:58.818Z,18.6
2017-10-24T12:09:00.221Z,18.5
2017-10-24T12:10:01.634Z,18.5
2017-10-24T12:11:03.042Z,18.5
2017-10-24T12:12:04.504Z,18.5
2017-10-24T12:13:05.908Z,18.4
2017-10-24T12:14:07.325Z,18.4
2017-10-24T12:15:08.716Z,18.4
2017-10-24T12:16:10.148Z,18.4
2017-10-24T12:17:11.553Z,18.4
2017-10-24T12:18:12.958Z,18.3
2017-10-24T12:19:14.364Z,18.4
2017-10-24T12:20:15.763Z,18.4
2017-10-24T12:21:17.171Z,18.4
2017-10-24T12:22:18.580Z,18.4
2017-10-24T12:23:19.984Z,18.4
2017-10-24T12:24:21.388Z,18.4
2017-10-24T12:25:22.793Z,18.4
2017-10-24T12:26:24.200Z,18.5
2017-10-24T12:27:25.603Z,18.5
2017-10-24T12:28:27.007Z,18.5
2017-10-24T12:29:28.409Z,18.4
2017-10-24T12:30:29.814Z,18.5
2017-10-24T12:31:31.219Z,18.5
2017-10-24T12:32:32.622Z,18.4
2017-10-24T12:33:34.028Z,18.4
2017-10-24T12:34:35.433Z,18.4
2017-10-24T12:35:36.838Z,18.2
2017-10-24T12:36:38.241Z,18.3
2017-10-24T12:37:39.644Z,18.3
2017-10-24T12:38:41.049Z,18.2
2017-10-24T12:39:42.454Z,18.2
2017-10-24T12:40:43.858Z,18.2
2017-10-24T12:41:45.265Z,18.2
2017-10-24T12:42:46.666Z,18.2
2017-10-24T12:43:48.065Z,18.1
2017-10-24T12:44:49.475Z,18.2
2017-10-24T12:45:50.880Z,18.2
2017-10-24T12:46:52.286Z,18.2
2017-10-24T12:47:53.696Z,18.2
2017-10-24T12:48:55.106Z,18.2
2017-10-24T12:49:56.511Z,18.2
2017-10-24T12:50:57.916Z,18.3
2017-10-24T12:51:59.322Z,18.4
2017-10-24T12:53:00.741Z,18.3
2017-10-24T12:54:02.137Z,18.4
2017-10-24T12:55:03.543Z,18.4
2017-10-24T12:56:04.946Z,18.4
2017-10-24T12:57:06.348Z,18.5
2017-10-24T12:58:07.757Z,18.3
2017-10-24T12:59:09.157Z,18.4
2017-10-24T13:00:10.565Z,18.5
2017-10-24T13:01:11.969Z,18.6
2017-10-24T13:02:13.375Z,18.6
2017-10-24T13:03:14.780Z,18.7
2017-10-24T13:04:16.186Z,18.6
2017-10-24T13:05:17.590Z,18.6
2017-10-24T13:06:18.995Z,18.7
2017-10-24T13:07:20.403Z,18.6
2017-10-24T13:08:21.813Z,18.6
2017-10-24T13:09:23.220Z,18.6
2017-10-24T13:10:24.628Z,18.7
2017-10-24T13:11:26.033Z,18.8
2017-10-24T13:12:27.435Z,18.7
2017-10-24T13:13:28.838Z,18.7
2017-10-24T13:14:30.245Z,18.7
2017-10-24T13:15:31.652Z,18.6
2017-10-24T13:16:33.057Z,18.6
2017-10-24T13:17:34.465Z,18.6
2017-10-24T13:18:35.868Z,18.5
2017-10-24T13:19:37.273Z,18.5
2017-10-24T13:20:38.679Z,18.5
2017-10-24T13:21:40.082Z,18.4
2017-10-24T13:22:41.488Z,18.4
2017-10-24T13:23:42.896Z,18.4
2017-10-24T13:24:44.303Z,18.5
2017-10-24T13:25:45.711Z,18.4
2017-10-24T13:26:47.118Z,18.5
2017-10-24T13:27:48.522Z,18.4
2017-10-24T13:28:49.924Z,18.4
2017-10-24T13:29:51.328Z,18.3
2017-10-24T13:30:52.732Z,18.3
2017-10-24T13:31:54.147Z,18.2
2017-10-24T13:32:55.543Z,18.2
2017-10-24T13:33:56.951Z,18.1
2017-10-24T13:34:58.357Z,18.2
2017-10-24T13:35:59.759Z,18.2
2017-10-24T13:37:01.166Z,18.3